sensor_id;sensor_type;location;lat;lon;timestamp;P1;durP1;ratioP1;P2;durP2;ratioP2
17818;SDS011;9034;50.284;19.310;2023-05-07T00:00:12;27.35;;;17.42;;
17818;SDS011;9034;50.284;19.310;2023-05-07T00:01:16;24.70;;;17.85;;
17818;SDS011;9034;50.284;19.310;2023-05-07T00:02:20;22.50;;;16.00;;
17818;SDS011;9034;50.284;19.310;2023-05-07T00:03:24;22.52;;;16.30;;
17818;SDS011;9034;50.284;19.310;2023-05-07T00:04:26;22.40;;;16.88;;
17818;SDS011;9034;50.284;19.310;2023-05-07T00:05:29;22.50;;;16.00;;
17818;SDS011;9034;50.284;19.310;2023-05-07T00:06:32;22.20;;;15.60;;
17818;SDS011;9034;50.284;19.310;2023-05-07T00:07:35;25.30;;;16.17;;
17818;SDS011;9034;50.284;19.310;2023-05-07T00:08:37;23.20;;;16.70;;
17818;SDS011;9034;50.284;19.310;2023-05-07T00:09:41;27.02;;;16.50;;
17818;SDS011;9034;50.284;19.310;2023-05-07T00:10:43;25.20;;;17.25;;
17818;SDS011;9034;50.284;19.310;2023-05-07T00:11:46;22.17;;;16.38;;
17818;SDS011;9034;50.284;19.310;2023-05-07T00:12:49;24.80;;;17.15;;
17818;SDS011;9034;50.284;19.310;2023-05-07T00:13:50;25.33;;;17.45;;
17818;SDS011;9034;50.284;19.310;2023-05-07T00:14:53;24.25;;;17.10;;
17818;SDS011;9034;50.284;19.310;2023-05-07T00:15:55;24.65;;;17.95;;
17818;SDS011;9034;50.284;19.310;2023-05-07T00:16:58;25.25;;;17.55;;
17818;SDS011;9034;50.284;19.310;2023-05-07T00:18:00;24.73;;;18.08;;
17818;SDS011;9034;50.284;19.310;2023-05-07T00:19:03;20.75;;;17.27;;
17818;SDS011;9034;50.284;19.310;2023-05-07T00:20:05;25.77;;;16.08;;
17818;SDS011;9034;50.284;19.310;2023-05-07T00:21:09;24.15;;;18.40;;
17818;SDS011;9034;50.284;19.310;2023-05-07T00:22:11;21.65;;;16.05;;
17818;SDS011;9034;50.284;19.310;2023-05-07T00:23:13;24.38;;;16.05;;
17818;SDS011;9034;50.284;19.310;2023-05-07T00:24:15;23.85;;;15.02;;
17818;SDS011;9034;50.284;19.310;2023-05-07T00:25:19;22.75;;;15.15;;
17818;SDS011;9034;50.284;19.310;2023-05-07T00:26:21;19.85;;;13.88;;
17818;SDS011;9034;50.284;19.310;2023-05-07T00:27:25;20.52;;;14.80;;
17818;SDS011;9034;50.284;19.310;2023-05-07T00:28:27;21.50;;;14.80;;
17818;SDS011;9034;50.284;19.310;2023-05-07T00:29:30;18.55;;;14.90;;
17818;SDS011;9034;50.284;19.310;2023-05-07T00:30:32;19.73;;;14.02;;
17818;SDS011;9034;50.284;19.310;2023-05-07T00:31:34;18.08;;;14.50;;
17818;SDS011;9034;50.284;19.310;2023-05-07T00:32:36;20.08;;;14.23;;
17818;SDS011;9034;50.284;19.310;2023-05-07T00:33:39;17.95;;;13.32;;
17818;SDS011;9034;50.284;19.310;2023-05-07T00:34:42;18.08;;;13.98;;
17818;SDS011;9034;50.284;19.310;2023-05-07T00:35:45;19.92;;;14.20;;
17818;SDS011;9034;50.284;19.310;2023-05-07T00:36:46;17.38;;;13.25;;
17818;SDS011;9034;50.284;19.310;2023-05-07T00:37:49;17.92;;;13.88;;
17818;SDS011;9034;50.284;19.310;2023-05-07T00:38:51;17.35;;;13.52;;
17818;SDS011;9034;50.284;19.310;2023-05-07T00:39:54;20.05;;;14.55;;
17818;SDS011;9034;50.284;19.310;2023-05-07T00:40:58;17.88;;;13.68;;
17818;SDS011;9034;50.284;19.310;2023-05-07T00:42:01;17.67;;;13.82;;
17818;SDS011;9034;50.284;19.310;2023-05-07T00:43:04;20.08;;;15.27;;
17818;SDS011;9034;50.284;19.310;2023-05-07T00:44:07;19.85;;;14.77;;
17818;SDS011;9034;50.284;19.310;2023-05-07T00:45:10;22.13;;;14.63;;
17818;SDS011;9034;50.284;19.310;2023-05-07T00:46:13;16.67;;;13.75;;
17818;SDS011;9034;50.284;19.310;2023-05-07T00:47:16;19.15;;;14.07;;
17818;SDS011;9034;50.284;19.310;2023-05-07T00:48:19;20.13;;;15.07;;
17818;SDS011;9034;50.284;19.310;2023-05-07T00:49:21;17.77;;;13.85;;
17818;SDS011;9034;50.284;19.310;2023-05-07T00:50:24;21.10;;;14.77;;
17818;SDS011;9034;50.284;19.310;2023-05-07T00:51:26;17.58;;;14.05;;
17818;SDS011;9034;50.284;19.310;2023-05-07T00:52:29;20.20;;;15.20;;
17818;SDS011;9034;50.284;19.310;2023-05-07T00:53:31;18.55;;;13.65;;
17818;SDS011;9034;50.284;19.310;2023-05-07T00:54:34;15.63;;;13.20;;
17818;SDS011;9034;50.284;19.310;2023-05-07T00:55:36;19.00;;;15.15;;
17818;SDS011;9034;50.284;19.310;2023-05-07T00:56:40;17.20;;;13.52;;
17818;SDS011;9034;50.284;19.310;2023-05-07T00:57:42;18.55;;;14.88;;
17818;SDS011;9034;50.284;19.310;2023-05-07T00:58:46;19.10;;;14.25;;
17818;SDS011;9034;50.284;19.310;2023-05-07T00:59:48;22.02;;;14.88;;
17818;SDS011;9034;50.284;19.310;2023-05-07T01:00:51;25.17;;;15.65;;
17818;SDS011;9034;50.284;19.310;2023-05-07T01:01:53;18.95;;;14.73;;
17818;SDS011;9034;50.284;19.310;2023-05-07T01:02:55;16.55;;;13.65;;
17818;SDS011;9034;50.284;19.310;2023-05-07T01:03:58;16.70;;;13.55;;
17818;SDS011;9034;50.284;19.310;2023-05-07T01:05:01;18.45;;;13.68;;
17818;SDS011;9034;50.284;19.310;2023-05-07T01:06:05;18.80;;;14.52;;
17818;SDS011;9034;50.284;19.310;2023-05-07T01:07:09;19.60;;;15.07;;
17818;SDS011;9034;50.284;19.310;2023-05-07T01:08:11;18.63;;;15.18;;
17818;SDS011;9034;50.284;19.310;2023-05-07T01:09:14;20.00;;;15.15;;
17818;SDS011;9034;50.284;19.310;2023-05-07T01:10:16;20.67;;;14.80;;
17818;SDS011;9034;50.284;19.310;2023-05-07T01:11:20;18.17;;;14.65;;
17818;SDS011;9034;50.284;19.310;2023-05-07T01:12:23;20.13;;;14.38;;
17818;SDS011;9034;50.284;19.310;2023-05-07T01:13:27;20.10;;;14.82;;
17818;SDS011;9034;50.284;19.310;2023-05-07T01:14:29;21.88;;;14.30;;
17818;SDS011;9034;50.284;19.310;2023-05-07T01:15:32;21.90;;;14.93;;
17818;SDS011;9034;50.284;19.310;2023-05-07T01:16:34;17.90;;;14.32;;
17818;SDS011;9034;50.284;19.310;2023-05-07T01:17:37;20.13;;;13.43;;
17818;SDS011;9034;50.284;19.310;2023-05-07T01:18:47;17.92;;;12.88;;
17818;SDS011;9034;50.284;19.310;2023-05-07T01:19:50;16.27;;;12.68;;
17818;SDS011;9034;50.284;19.310;2023-05-07T01:20:54;18.17;;;13.43;;
17818;SDS011;9034;50.284;19.310;2023-05-07T01:22:01;14.60;;;11.65;;
17818;SDS011;9034;50.284;19.310;2023-05-07T01:23:07;14.07;;;11.48;;
17818;SDS011;9034;50.284;19.310;2023-05-07T01:24:10;17.48;;;11.93;;
17818;SDS011;9034;50.284;19.310;2023-05-07T01:25:12;14.88;;;12.05;;
17818;SDS011;9034;50.284;19.310;2023-05-07T01:26:22;15.52;;;12.48;;
17818;SDS011;9034;50.284;19.310;2023-05-07T01:27:25;19.25;;;12.60;;
17818;SDS011;9034;50.284;19.310;2023-05-07T01:28:27;15.27;;;11.30;;
17818;SDS011;9034;50.284;19.310;2023-05-07T01:29:32;12.05;;;9.95;;
17818;SDS011;9034;50.284;19.310;2023-05-07T01:30:35;11.27;;;10.07;;
17818;SDS011;9034;50.284;19.310;2023-05-07T01:31:40;11.73;;;9.63;;
17818;SDS011;9034;50.284;19.310;2023-05-07T01:32:46;13.27;;;10.00;;
17818;SDS011;9034;50.284;19.310;2023-05-07T01:33:51;14.80;;;10.15;;
17818;SDS011;9034;50.284;19.310;2023-05-07T01:34:54;14.95;;;10.13;;
17818;SDS011;9034;50.284;19.310;2023-05-07T01:35:56;14.40;;;11.13;;
17818;SDS011;9034;50.284;19.310;2023-05-07T01:37:01;14.43;;;11.68;;
17818;SDS011;9034;50.284;19.310;2023-05-07T01:38:04;12.30;;;10.02;;
17818;SDS011;9034;50.284;19.310;2023-05-07T01:39:08;12.88;;;9.75;;
17818;SDS011;9034;50.284;19.310;2023-05-07T01:40:11;11.45;;;9.45;;
17818;SDS011;9034;50.284;19.310;2023-05-07T01:41:14;13.73;;;9.15;;
17818;SDS011;9034;50.284;19.310;2023-05-07T01:42:16;13.75;;;9.80;;
17818;SDS011;9034;50.284;19.310;2023-05-07T01:43:19;12.15;;;8.55;;
17818;SDS011;9034;50.284;19.310;2023-05-07T01:44:21;15.30;;;9.55;;
17818;SDS011;9034;50.284;19.310;2023-05-07T01:45:25;12.50;;;8.93;;
17818;SDS011;9034;50.284;19.310;2023-05-07T01:46:27;10.15;;;8.85;;
17818;SDS011;9034;50.284;19.310;2023-05-07T01:47:30;12.38;;;9.18;;
17818;SDS011;9034;50.284;19.310;2023-05-07T01:48:32;12.60;;;8.88;;
17818;SDS011;9034;50.284;19.310;2023-05-07T01:49:35;13.50;;;8.93;;
17818;SDS011;9034;50.284;19.310;2023-05-07T01:50:37;12.27;;;9.57;;
17818;SDS011;9034;50.284;19.310;2023-05-07T01:51:41;12.90;;;9.32;;
17818;SDS011;9034;50.284;19.310;2023-05-07T01:52:43;12.20;;;9.85;;
17818;SDS011;9034;50.284;19.310;2023-05-07T01:53:46;14.05;;;10.90;;
17818;SDS011;9034;50.284;19.310;2023-05-07T01:54:54;16.58;;;11.35;;
17818;SDS011;9034;50.284;19.310;2023-05-07T01:55:57;15.30;;;10.43;;
17818;SDS011;9034;50.284;19.310;2023-05-07T01:56:59;11.38;;;9.90;;
17818;SDS011;9034;50.284;19.310;2023-05-07T01:58:03;12.07;;;8.95;;
17818;SDS011;9034;50.284;19.310;2023-05-07T01:59:04;12.07;;;9.10;;
17818;SDS011;9034;50.284;19.310;2023-05-07T02:00:08;12.63;;;9.55;;
17818;SDS011;9034;50.284;19.310;2023-05-07T02:01:16;16.05;;;9.98;;
17818;SDS011;9034;50.284;19.310;2023-05-07T02:02:21;10.85;;;9.60;;
17818;SDS011;9034;50.284;19.310;2023-05-07T02:03:23;12.52;;;9.52;;
17818;SDS011;9034;50.284;19.310;2023-05-07T02:04:35;13.02;;;9.20;;
17818;SDS011;9034;50.284;19.310;2023-05-07T02:05:37;12.43;;;8.77;;
17818;SDS011;9034;50.284;19.310;2023-05-07T02:06:53;10.23;;;8.35;;
17818;SDS011;9034;50.284;19.310;2023-05-07T02:07:57;11.98;;;8.95;;
17818;SDS011;9034;50.284;19.310;2023-05-07T02:09:01;11.20;;;7.72;;
17818;SDS011;9034;50.284;19.310;2023-05-07T02:10:06;11.55;;;8.43;;
17818;SDS011;9034;50.284;19.310;2023-05-07T02:11:08;10.88;;;9.32;;
17818;SDS011;9034;50.284;19.310;2023-05-07T02:12:11;13.05;;;9.35;;
17818;SDS011;9034;50.284;19.310;2023-05-07T02:13:13;10.20;;;8.07;;
17818;SDS011;9034;50.284;19.310;2023-05-07T02:14:16;12.48;;;8.07;;
17818;SDS011;9034;50.284;19.310;2023-05-07T02:15:18;11.05;;;9.25;;
17818;SDS011;9034;50.284;19.310;2023-05-07T02:16:21;10.93;;;9.63;;
17818;SDS011;9034;50.284;19.310;2023-05-07T02:17:25;14.18;;;12.10;;
17818;SDS011;9034;50.284;19.310;2023-05-07T02:18:28;16.15;;;12.30;;
17818;SDS011;9034;50.284;19.310;2023-05-07T02:19:30;15.20;;;11.77;;
17818;SDS011;9034;50.284;19.310;2023-05-07T02:20:33;14.10;;;11.63;;
17818;SDS011;9034;50.284;19.310;2023-05-07T02:21:35;15.70;;;12.10;;
17818;SDS011;9034;50.284;19.310;2023-05-07T02:22:37;14.50;;;11.75;;
17818;SDS011;9034;50.284;19.310;2023-05-07T02:25:18;13.30;;;10.93;;
17818;SDS011;9034;50.284;19.310;2023-05-07T02:26:21;13.82;;;10.32;;
17818;SDS011;9034;50.284;19.310;2023-05-07T02:27:23;13.32;;;10.50;;
17818;SDS011;9034;50.284;19.310;2023-05-07T02:28:26;15.73;;;10.27;;
17818;SDS011;9034;50.284;19.310;2023-05-07T02:29:38;13.95;;;11.02;;
17818;SDS011;9034;50.284;19.310;2023-05-07T02:30:41;13.10;;;9.82;;
17818;SDS011;9034;50.284;19.310;2023-05-07T02:31:43;11.65;;;9.77;;
17818;SDS011;9034;50.284;19.310;2023-05-07T02:32:46;15.23;;;10.63;;
17818;SDS011;9034;50.284;19.310;2023-05-07T02:33:48;13.70;;;11.10;;
17818;SDS011;9034;50.284;19.310;2023-05-07T02:34:51;12.38;;;10.10;;
17818;SDS011;9034;50.284;19.310;2023-05-07T02:35:53;11.57;;;8.65;;
17818;SDS011;9034;50.284;19.310;2023-05-07T02:36:56;9.07;;;8.15;;
17818;SDS011;9034;50.284;19.310;2023-05-07T02:38:00;9.27;;;8.25;;
17818;SDS011;9034;50.284;19.310;2023-05-07T02:39:03;8.75;;;7.82;;
17818;SDS011;9034;50.284;19.310;2023-05-07T02:40:05;8.65;;;6.93;;
17818;SDS011;9034;50.284;19.310;2023-05-07T02:41:10;7.30;;;6.57;;
17818;SDS011;9034;50.284;19.310;2023-05-07T02:42:12;7.68;;;6.60;;
17818;SDS011;9034;50.284;19.310;2023-05-07T02:43:15;7.30;;;6.15;;
17818;SDS011;9034;50.284;19.310;2023-05-07T02:44:20;7.15;;;6.30;;
17818;SDS011;9034;50.284;19.310;2023-05-07T02:45:25;6.97;;;6.28;;
17818;SDS011;9034;50.284;19.310;2023-05-07T02:46:28;8.00;;;6.22;;
17818;SDS011;9034;50.284;19.310;2023-05-07T02:47:36;5.85;;;5.25;;
17818;SDS011;9034;50.284;19.310;2023-05-07T02:48:38;6.53;;;5.80;;
17818;SDS011;9034;50.284;19.310;2023-05-07T02:49:41;5.80;;;5.18;;
17818;SDS011;9034;50.284;19.310;2023-05-07T02:50:44;7.63;;;5.28;;
17818;SDS011;9034;50.284;19.310;2023-05-07T02:51:48;8.13;;;5.78;;
17818;SDS011;9034;50.284;19.310;2023-05-07T02:52:55;5.38;;;4.88;;
17818;SDS011;9034;50.284;19.310;2023-05-07T02:53:57;5.90;;;4.30;;
17818;SDS011;9034;50.284;19.310;2023-05-07T02:54:59;4.43;;;4.03;;
17818;SDS011;9034;50.284;19.310;2023-05-07T02:56:02;5.88;;;4.78;;
17818;SDS011;9034;50.284;19.310;2023-05-07T02:57:06;4.35;;;3.95;;
17818;SDS011;9034;50.284;19.310;2023-05-07T02:58:08;4.20;;;3.80;;
17818;SDS011;9034;50.284;19.310;2023-05-07T02:59:12;4.40;;;4.00;;
17818;SDS011;9034;50.284;19.310;2023-05-07T03:00:16;4.70;;;4.30;;
17818;SDS011;9034;50.284;19.310;2023-05-07T03:01:39;4.30;;;3.90;;
17818;SDS011;9034;50.284;19.310;2023-05-07T03:02:45;5.88;;;4.40;;
17818;SDS011;9034;50.284;19.310;2023-05-07T03:03:47;4.00;;;3.55;;
17818;SDS011;9034;50.284;19.310;2023-05-07T03:04:51;3.90;;;3.60;;
17818;SDS011;9034;50.284;19.310;2023-05-07T03:05:53;6.90;;;3.85;;
17818;SDS011;9034;50.284;19.310;2023-05-07T03:06:55;3.80;;;3.50;;
17818;SDS011;9034;50.284;19.310;2023-05-07T03:07:57;4.43;;;3.78;;
17818;SDS011;9034;50.284;19.310;2023-05-07T03:09:00;4.50;;;4.10;;
17818;SDS011;9034;50.284;19.310;2023-05-07T03:10:03;5.88;;;3.85;;
17818;SDS011;9034;50.284;19.310;2023-05-07T03:11:06;5.55;;;4.40;;
17818;SDS011;9034;50.284;19.310;2023-05-07T03:12:09;4.20;;;3.80;;
17818;SDS011;9034;50.284;19.310;2023-05-07T03:13:12;4.55;;;4.03;;
17818;SDS011;9034;50.284;19.310;2023-05-07T03:14:14;4.28;;;3.65;;
17818;SDS011;9034;50.284;19.310;2023-05-07T03:15:17;3.65;;;3.35;;
17818;SDS011;9034;50.284;19.310;2023-05-07T03:16:19;3.80;;;3.50;;
17818;SDS011;9034;50.284;19.310;2023-05-07T03:17:22;5.28;;;3.85;;
17818;SDS011;9034;50.284;19.310;2023-05-07T03:18:24;3.60;;;3.30;;
17818;SDS011;9034;50.284;19.310;2023-05-07T03:19:27;3.63;;;3.33;;
17818;SDS011;9034;50.284;19.310;2023-05-07T03:20:29;4.30;;;3.30;;
17818;SDS011;9034;50.284;19.310;2023-05-07T03:21:32;5.70;;;3.80;;
17818;SDS011;9034;50.284;19.310;2023-05-07T03:22:35;4.20;;;3.80;;
17818;SDS011;9034;50.284;19.310;2023-05-07T03:23:38;3.75;;;3.35;;
17818;SDS011;9034;50.284;19.310;2023-05-07T03:24:40;4.70;;;3.28;;
17818;SDS011;9034;50.284;19.310;2023-05-07T03:25:42;4.38;;;3.67;;
17818;SDS011;9034;50.284;19.310;2023-05-07T03:26:45;5.50;;;3.85;;
17818;SDS011;9034;50.284;19.310;2023-05-07T03:27:48;6.65;;;3.50;;
17818;SDS011;9034;50.284;19.310;2023-05-07T03:28:55;4.40;;;3.53;;
17818;SDS011;9034;50.284;19.310;2023-05-07T03:29:57;5.45;;;3.60;;
17818;SDS011;9034;50.284;19.310;2023-05-07T03:31:00;3.67;;;3.20;;
17818;SDS011;9034;50.284;19.310;2023-05-07T03:32:02;4.78;;;3.60;;
17818;SDS011;9034;50.284;19.310;2023-05-07T03:33:05;10.02;;;3.80;;
17818;SDS011;9034;50.284;19.310;2023-05-07T03:34:07;5.75;;;3.80;;
17818;SDS011;9034;50.284;19.310;2023-05-07T03:35:10;4.90;;;3.30;;
17818;SDS011;9034;50.284;19.310;2023-05-07T03:36:12;3.33;;;3.03;;
17818;SDS011;9034;50.284;19.310;2023-05-07T03:37:15;5.10;;;3.47;;
17818;SDS011;9034;50.284;19.310;2023-05-07T03:38:17;3.80;;;3.38;;
17818;SDS011;9034;50.284;19.310;2023-05-07T03:39:20;3.70;;;3.05;;
17818;SDS011;9034;50.284;19.310;2023-05-07T03:40:22;4.18;;;3.67;;
17818;SDS011;9034;50.284;19.310;2023-05-07T03:41:28;4.70;;;4.22;;
17818;SDS011;9034;50.284;19.310;2023-05-07T03:42:31;5.22;;;4.53;;
17818;SDS011;9034;50.284;19.310;2023-05-07T03:43:35;6.28;;;5.35;;
17818;SDS011;9034;50.284;19.310;2023-05-07T03:44:41;5.88;;;5.28;;
17818;SDS011;9034;50.284;19.310;2023-05-07T03:45:43;5.72;;;5.13;;
17818;SDS011;9034;50.284;19.310;2023-05-07T03:46:53;6.57;;;5.70;;
17818;SDS011;9034;50.284;19.310;2023-05-07T03:47:57;6.75;;;6.05;;
17818;SDS011;9034;50.284;19.310;2023-05-07T03:48:58;7.53;;;6.60;;
17818;SDS011;9034;50.284;19.310;2023-05-07T03:50:02;7.28;;;6.47;;
17818;SDS011;9034;50.284;19.310;2023-05-07T03:51:04;7.57;;;6.63;;
17818;SDS011;9034;50.284;19.310;2023-05-07T03:52:07;7.50;;;6.68;;
17818;SDS011;9034;50.284;19.310;2023-05-07T03:53:09;9.80;;;6.90;;
17818;SDS011;9034;50.284;19.310;2023-05-07T03:54:13;7.63;;;6.50;;
17818;SDS011;9034;50.284;19.310;2023-05-07T03:55:19;8.57;;;6.93;;
17818;SDS011;9034;50.284;19.310;2023-05-07T03:56:26;9.82;;;7.35;;
17818;SDS011;9034;50.284;19.310;2023-05-07T03:57:31;8.55;;;7.07;;
17818;SDS011;9034;50.284;19.310;2023-05-07T03:58:35;7.72;;;6.18;;
17818;SDS011;9034;50.284;19.310;2023-05-07T03:59:41;7.53;;;6.50;;
17818;SDS011;9034;50.284;19.310;2023-05-07T04:00:44;5.95;;;5.35;;
17818;SDS011;9034;50.284;19.310;2023-05-07T04:01:56;6.60;;;5.90;;
17818;SDS011;9034;50.284;19.310;2023-05-07T04:03:01;6.78;;;5.47;;
17818;SDS011;9034;50.284;19.310;2023-05-07T04:04:05;6.95;;;6.00;;
17818;SDS011;9034;50.284;19.310;2023-05-07T04:05:09;6.00;;;4.90;;
17818;SDS011;9034;50.284;19.310;2023-05-07T04:06:13;5.75;;;5.22;;
17818;SDS011;9034;50.284;19.310;2023-05-07T04:07:20;6.43;;;5.80;;
17818;SDS011;9034;50.284;19.310;2023-05-07T04:08:24;7.18;;;5.88;;
17818;SDS011;9034;50.284;19.310;2023-05-07T04:09:28;7.00;;;6.30;;
17818;SDS011;9034;50.284;19.310;2023-05-07T04:10:31;7.88;;;6.82;;
17818;SDS011;9034;50.284;19.310;2023-05-07T04:11:37;8.18;;;6.10;;
17818;SDS011;9034;50.284;19.310;2023-05-07T04:12:43;7.13;;;6.43;;
17818;SDS011;9034;50.284;19.310;2023-05-07T04:13:51;7.40;;;6.70;;
17818;SDS011;9034;50.284;19.310;2023-05-07T04:14:56;8.07;;;6.35;;
17818;SDS011;9034;50.284;19.310;2023-05-07T04:16:00;9.30;;;7.97;;
17818;SDS011;9034;50.284;19.310;2023-05-07T04:17:03;7.40;;;6.63;;
17818;SDS011;9034;50.284;19.310;2023-05-07T04:18:07;7.60;;;6.90;;
17818;SDS011;9034;50.284;19.310;2023-05-07T04:19:09;7.75;;;6.50;;
17818;SDS011;9034;50.284;19.310;2023-05-07T04:20:14;7.75;;;6.78;;
17818;SDS011;9034;50.284;19.310;2023-05-07T04:21:19;8.85;;;7.95;;
17818;SDS011;9034;50.284;19.310;2023-05-07T04:22:24;8.73;;;7.50;;
17818;SDS011;9034;50.284;19.310;2023-05-07T04:23:26;7.65;;;6.95;;
17818;SDS011;9034;50.284;19.310;2023-05-07T04:24:31;11.77;;;10.57;;
17818;SDS011;9034;50.284;19.310;2023-05-07T04:25:35;19.90;;;17.85;;
17818;SDS011;9034;50.284;19.310;2023-05-07T04:26:46;17.08;;;15.38;;
17818;SDS011;9034;50.284;19.310;2023-05-07T04:27:48;14.52;;;13.02;;
17818;SDS011;9034;50.284;19.310;2023-05-07T04:28:53;16.05;;;14.30;;
17818;SDS011;9034;50.284;19.310;2023-05-07T04:29:55;13.07;;;11.77;;
17818;SDS011;9034;50.284;19.310;2023-05-07T04:30:59;12.93;;;11.07;;
17818;SDS011;9034;50.284;19.310;2023-05-07T04:32:01;10.80;;;9.05;;
17818;SDS011;9034;50.284;19.310;2023-05-07T04:33:04;5.75;;;5.15;;
17818;SDS011;9034;50.284;19.310;2023-05-07T04:34:08;4.50;;;4.00;;
17818;SDS011;9034;50.284;19.310;2023-05-07T04:35:12;3.60;;;3.30;;
17818;SDS011;9034;50.284;19.310;2023-05-07T04:36:14;3.88;;;3.47;;
17818;SDS011;9034;50.284;19.310;2023-05-07T04:37:32;6.63;;;3.97;;
17818;SDS011;9034;50.284;19.310;2023-05-07T04:38:35;4.53;;;3.92;;
17818;SDS011;9034;50.284;19.310;2023-05-07T04:39:37;4.25;;;3.35;;
17818;SDS011;9034;50.284;19.310;2023-05-07T04:40:40;4.10;;;3.75;;
17818;SDS011;9034;50.284;19.310;2023-05-07T04:41:44;3.85;;;3.55;;
17818;SDS011;9034;50.284;19.310;2023-05-07T04:42:47;6.07;;;4.30;;
17818;SDS011;9034;50.284;19.310;2023-05-07T04:43:49;7.00;;;4.68;;
17818;SDS011;9034;50.284;19.310;2023-05-07T04:44:56;6.18;;;5.10;;
17818;SDS011;9034;50.284;19.310;2023-05-07T04:45:59;5.40;;;4.22;;
17818;SDS011;9034;50.284;19.310;2023-05-07T04:47:02;5.72;;;4.40;;
17818;SDS011;9034;50.284;19.310;2023-05-07T04:48:04;4.50;;;3.42;;
17818;SDS011;9034;50.284;19.310;2023-05-07T04:49:08;4.82;;;3.90;;
17818;SDS011;9034;50.284;19.310;2023-05-07T04:50:10;4.38;;;3.60;;
17818;SDS011;9034;50.284;19.310;2023-05-07T04:51:15;5.60;;;4.28;;
17818;SDS011;9034;50.284;19.310;2023-05-07T04:52:16;10.70;;;4.60;;
17818;SDS011;9034;50.284;19.310;2023-05-07T04:53:19;5.43;;;4.22;;
17818;SDS011;9034;50.284;19.310;2023-05-07T04:54:22;5.53;;;3.47;;
17818;SDS011;9034;50.284;19.310;2023-05-07T04:55:27;5.78;;;3.85;;
17818;SDS011;9034;50.284;19.310;2023-05-07T04:56:29;6.50;;;4.32;;
17818;SDS011;9034;50.284;19.310;2023-05-07T04:57:34;3.53;;;3.22;;
17818;SDS011;9034;50.284;19.310;2023-05-07T04:58:36;3.50;;;3.20;;
17818;SDS011;9034;50.284;19.310;2023-05-07T04:59:39;6.25;;;3.75;;
17818;SDS011;9034;50.284;19.310;2023-05-07T05:00:42;2.63;;;2.42;;
17818;SDS011;9034;50.284;19.310;2023-05-07T05:01:45;3.50;;;2.30;;
17818;SDS011;9034;50.284;19.310;2023-05-07T05:02:47;2.65;;;2.28;;
17818;SDS011;9034;50.284;19.310;2023-05-07T05:03:53;2.53;;;2.30;;
17818;SDS011;9034;50.284;19.310;2023-05-07T05:04:55;2.40;;;2.20;;
17818;SDS011;9034;50.284;19.310;2023-05-07T05:05:58;4.10;;;2.90;;
17818;SDS011;9034;50.284;19.310;2023-05-07T05:07:04;4.95;;;3.25;;
17818;SDS011;9034;50.284;19.310;2023-05-07T05:08:07;3.17;;;2.53;;
17818;SDS011;9034;50.284;19.310;2023-05-07T05:09:12;2.60;;;2.40;;
17818;SDS011;9034;50.284;19.310;2023-05-07T05:10:16;3.33;;;3.03;;
17818;SDS011;9034;50.284;19.310;2023-05-07T05:11:18;3.67;;;2.60;;
17818;SDS011;9034;50.284;19.310;2023-05-07T05:12:22;3.50;;;2.90;;
17818;SDS011;9034;50.284;19.310;2023-05-07T05:13:24;3.35;;;2.67;;
17818;SDS011;9034;50.284;19.310;2023-05-07T05:14:27;2.85;;;2.63;;
17818;SDS011;9034;50.284;19.310;2023-05-07T05:15:29;3.00;;;2.70;;
17818;SDS011;9034;50.284;19.310;2023-05-07T05:16:36;3.45;;;2.88;;
17818;SDS011;9034;50.284;19.310;2023-05-07T05:17:39;3.05;;;2.75;;
17818;SDS011;9034;50.284;19.310;2023-05-07T05:18:41;2.72;;;2.50;;
17818;SDS011;9034;50.284;19.310;2023-05-07T05:19:46;4.40;;;3.70;;
17818;SDS011;9034;50.284;19.310;2023-05-07T05:20:48;5.07;;;3.80;;
17818;SDS011;9034;50.284;19.310;2023-05-07T05:21:51;5.65;;;3.25;;
17818;SDS011;9034;50.284;19.310;2023-05-07T05:22:53;3.88;;;3.20;;
17818;SDS011;9034;50.284;19.310;2023-05-07T05:23:56;4.70;;;3.13;;
17818;SDS011;9034;50.284;19.310;2023-05-07T05:24:59;4.40;;;3.00;;
17818;SDS011;9034;50.284;19.310;2023-05-07T05:26:02;3.10;;;2.80;;
17818;SDS011;9034;50.284;19.310;2023-05-07T05:27:06;3.13;;;2.83;;
17818;SDS011;9034;50.284;19.310;2023-05-07T05:28:09;3.22;;;2.80;;
17818;SDS011;9034;50.284;19.310;2023-05-07T05:29:12;4.00;;;3.60;;
17818;SDS011;9034;50.284;19.310;2023-05-07T05:30:16;4.80;;;3.95;;
17818;SDS011;9034;50.284;19.310;2023-05-07T05:31:21;6.10;;;4.13;;
17818;SDS011;9034;50.284;19.310;2023-05-07T05:32:25;4.88;;;4.22;;
17818;SDS011;9034;50.284;19.310;2023-05-07T05:33:30;4.70;;;3.90;;
17818;SDS011;9034;50.284;19.310;2023-05-07T05:34:37;4.28;;;3.78;;
17818;SDS011;9034;50.284;19.310;2023-05-07T05:35:40;4.32;;;3.92;;
17818;SDS011;9034;50.284;19.310;2023-05-07T05:36:45;5.97;;;4.53;;
17818;SDS011;9034;50.284;19.310;2023-05-07T05:37:49;5.13;;;4.53;;
17818;SDS011;9034;50.284;19.310;2023-05-07T05:38:52;6.38;;;5.22;;
17818;SDS011;9034;50.284;19.310;2023-05-07T05:39:56;5.82;;;4.63;;
17818;SDS011;9034;50.284;19.310;2023-05-07T05:40:59;6.70;;;6.00;;
17818;SDS011;9034;50.284;19.310;2023-05-07T05:42:04;7.20;;;6.03;;
17818;SDS011;9034;50.284;19.310;2023-05-07T05:43:09;8.75;;;7.53;;
17818;SDS011;9034;50.284;19.310;2023-05-07T05:44:12;7.18;;;6.07;;
17818;SDS011;9034;50.284;19.310;2023-05-07T05:45:15;6.10;;;5.50;;
17818;SDS011;9034;50.284;19.310;2023-05-07T05:46:19;5.47;;;4.88;;
17818;SDS011;9034;50.284;19.310;2023-05-07T05:47:25;4.50;;;4.07;;
17818;SDS011;9034;50.284;19.310;2023-05-07T05:48:29;6.30;;;4.47;;
17818;SDS011;9034;50.284;19.310;2023-05-07T05:49:34;5.43;;;4.25;;
17818;SDS011;9034;50.284;19.310;2023-05-07T05:50:38;5.30;;;4.13;;
17818;SDS011;9034;50.284;19.310;2023-05-07T05:51:41;4.20;;;3.30;;
17818;SDS011;9034;50.284;19.310;2023-05-07T05:52:44;4.40;;;3.42;;
17818;SDS011;9034;50.284;19.310;2023-05-07T05:53:46;5.70;;;3.50;;
17818;SDS011;9034;50.284;19.310;2023-05-07T05:54:49;4.68;;;3.55;;
17818;SDS011;9034;50.284;19.310;2023-05-07T05:55:51;4.28;;;3.47;;
17818;SDS011;9034;50.284;19.310;2023-05-07T05:56:54;4.03;;;2.95;;
17818;SDS011;9034;50.284;19.310;2023-05-07T05:57:57;2.85;;;2.60;;
17818;SDS011;9034;50.284;19.310;2023-05-07T05:59:00;3.40;;;2.28;;
17818;SDS011;9034;50.284;19.310;2023-05-07T06:00:03;3.17;;;2.72;;
17818;SDS011;9034;50.284;19.310;2023-05-07T06:01:18;2.65;;;2.45;;
17818;SDS011;9034;50.284;19.310;2023-05-07T06:02:24;2.78;;;2.42;;
17818;SDS011;9034;50.284;19.310;2023-05-07T06:03:27;3.20;;;2.40;;
17818;SDS011;9034;50.284;19.310;2023-05-07T06:04:32;2.78;;;2.58;;
17818;SDS011;9034;50.284;19.310;2023-05-07T06:05:35;3.47;;;3.17;;
17818;SDS011;9034;50.284;19.310;2023-05-07T06:06:37;3.25;;;2.90;;
17818;SDS011;9034;50.284;19.310;2023-05-07T06:07:39;3.20;;;2.63;;
17818;SDS011;9034;50.284;19.310;2023-05-07T06:08:43;3.08;;;2.70;;
17818;SDS011;9034;50.284;19.310;2023-05-07T06:09:48;4.03;;;3.00;;
17818;SDS011;9034;50.284;19.310;2023-05-07T06:10:51;3.33;;;2.70;;
17818;SDS011;9034;50.284;19.310;2023-05-07T06:11:53;3.67;;;3.05;;
17818;SDS011;9034;50.284;19.310;2023-05-07T06:12:57;3.25;;;2.65;;
17818;SDS011;9034;50.284;19.310;2023-05-07T06:13:59;2.88;;;2.60;;
17818;SDS011;9034;50.284;19.310;2023-05-07T06:15:04;16.58;;;7.57;;
17818;SDS011;9034;50.284;19.310;2023-05-07T06:16:07;3.55;;;3.20;;
17818;SDS011;9034;50.284;19.310;2023-05-07T06:17:10;3.30;;;3.00;;
17818;SDS011;9034;50.284;19.310;2023-05-07T06:18:14;3.78;;;3.42;;
17818;SDS011;9034;50.284;19.310;2023-05-07T06:19:17;3.20;;;2.90;;
17818;SDS011;9034;50.284;19.310;2023-05-07T06:20:26;3.08;;;2.80;;